createdAt,value
2023-03-12T00:02:28.057Z,101054.19
2023-03-12T00:04:56.758Z,101050.72
2023-03-12T00:07:24.547Z,101047.19
2023-03-12T00:09:52.502Z,101050.72
2023-03-12T00:12:20.330Z,101048.03
2023-03-12T00:14:48.093Z,101045.50
2023-03-12T00:17:15.887Z,101043.00
2023-03-12T00:19:45.385Z,101046.47
2023-03-12T00:22:13.329Z,101053.50
2023-03-12T00:24:41.145Z,101053.50
2023-03-12T00:27:08.968Z,101053.66
2023-03-12T00:29:37.121Z,101049.91
2023-03-12T00:32:05.047Z,101046.38
2023-03-12T00:34:32.852Z,101034.59
2023-03-12T00:37:02.034Z,101029.25
2023-03-12T00:39:29.823Z,101030.19
2023-03-12T00:41:57.648Z,101018.03
2023-03-12T00:44:25.360Z,101023.09
2023-03-12T00:46:53.624Z,101015.03
2023-03-12T00:49:21.382Z,101025.78
2023-03-12T00:51:49.103Z,101022.25
2023-03-12T00:54:18.256Z,101022.34
2023-03-12T00:56:46.839Z,101016.88
2023-03-12T00:59:14.890Z,101017.66
2023-03-12T01:01:43.199Z,101015.03
2023-03-12T01:04:11.006Z,101010.81
2023-03-12T01:06:39.123Z,101003.47
2023-03-12T01:09:09.055Z,101002.69
2023-03-12T01:11:39.730Z,101013.31
2023-03-12T01:14:09.257Z,101005.47
2023-03-12T01:16:37.095Z,101017.91
2023-03-12T01:19:05.603Z,101020.50
2023-03-12T01:21:33.496Z,101015.25
2023-03-12T01:24:01.559Z,101009.00
2023-03-12T01:26:29.406Z,101008.94
2023-03-12T01:28:58.692Z,101009.69
2023-03-12T01:31:26.931Z,101003.56
2023-03-12T01:33:57.577Z,101001.72
2023-03-12T01:36:27.386Z,100990.16
2023-03-12T01:38:57.936Z,100990.91
2023-03-12T01:41:27.516Z,100990.91
2023-03-12T01:43:55.258Z,100989.94
2023-03-12T01:46:29.044Z,100986.47
2023-03-12T01:48:59.218Z,100977.69
2023-03-12T01:51:29.574Z,100969.53
2023-03-12T01:54:01.767Z,100963.31
2023-03-12T01:56:33.220Z,100958.31
2023-03-12T01:59:04.488Z,100965.38
2023-03-12T02:01:34.301Z,100952.84
2023-03-12T02:04:03.147Z,100958.13
2023-03-12T02:06:38.303Z,100945.66
2023-03-12T02:09:08.418Z,100944.59
2023-03-12T02:11:36.503Z,100944.59
2023-03-12T02:14:04.544Z,100934.75
2023-03-12T02:16:34.019Z,100926.72
2023-03-12T02:19:05.509Z,100924.88
2023-03-12T02:21:35.858Z,100909.81
2023-03-12T02:24:09.583Z,100914.03
2023-03-12T02:26:39.718Z,100910.59
2023-03-12T02:29:08.190Z,100914.94
2023-03-12T02:31:41.931Z,100904.28
2023-03-12T02:34:10.066Z,100907.16
2023-03-12T02:36:37.945Z,100900.84
2023-03-12T02:39:05.972Z,100894.50
2023-03-12T02:41:36.658Z,100898.06
2023-03-12T02:44:11.270Z,100901.63
2023-03-12T02:46:42.272Z,100905.16
2023-03-12T02:49:11.969Z,100911.34
2023-03-12T02:51:40.032Z,100901.63
2023-03-12T02:54:08.250Z,100903.41
2023-03-12T02:56:36.504Z,100894.50
2023-03-12T02:59:06.366Z,100898.16
2023-03-12T03:01:34.918Z,100890.09
2023-03-12T03:04:03.770Z,100894.50
2023-03-12T03:06:32.552Z,100889.06
2023-03-12T03:09:00.926Z,100892.59
2023-03-12T03:11:28.884Z,100896.25
2023-03-12T03:13:56.789Z,100890.94
2023-03-12T03:16:26.259Z,100882.91
2023-03-12T03:18:54.120Z,100874.09
2023-03-12T03:21:22.705Z,100870.66
2023-03-12T03:23:51.810Z,100854.81
2023-03-12T03:26:22.847Z,100846.97
2023-03-12T03:28:51.265Z,100845.03
2023-03-12T03:31:19.412Z,100840.56
2023-03-12T03:33:49.554Z,100833.56
2023-03-12T03:36:18.782Z,100833.34
2023-03-12T03:38:49.441Z,100828.25
2023-03-12T03:41:18.508Z,100820.91
2023-03-12T03:43:46.698Z,100817.38
2023-03-12T03:46:15.963Z,100813.91
2023-03-12T03:48:44.261Z,100808.63
2023-03-12T03:51:14.788Z,100808.81
2023-03-12T03:53:42.608Z,100809.59
2023-03-12T03:56:12.253Z,100797.91
2023-03-12T03:58:40.396Z,100805.09
2023-03-12T04:01:08.468Z,100791.88
2023-03-12T04:03:36.813Z,100789.09
2023-03-12T04:06:07.365Z,100791.69
2023-03-12T04:08:37.872Z,100797.91
2023-03-12T04:11:10.366Z,100796.97
2023-03-12T04:13:38.274Z,100793.41
2023-03-12T04:16:06.731Z,100793.41
2023-03-12T04:18:36.130Z,100804.13
2023-03-12T04:21:05.022Z,100792.56
2023-03-12T04:23:33.057Z,100790.66
2023-03-12T04:26:02.255Z,100794.06
2023-03-12T04:28:30.176Z,100795.81
2023-03-12T04:30:59.721Z,100789.59
2023-03-12T04:33:28.045Z,100772.63
2023-03-12T04:35:56.372Z,100770.91
2023-03-12T04:38:25.808Z,100766.19
2023-03-12T04:40:59.859Z,100759.03
2023-03-12T04:43:29.716Z,100749.38
2023-03-12T04:45:58.429Z,100739.47
2023-03-12T04:48:26.869Z,100738.34
2023-03-12T04:50:54.984Z,100733.00
2023-03-12T04:53:23.747Z,100720.53
2023-03-12T04:55:52.127Z,100715.34
2023-03-12T04:58:20.851Z,100716.22
2023-03-12T05:00:51.035Z,100717.28
2023-03-12T05:03:19.364Z,100702.41
2023-03-12T05:05:47.135Z,100709.59
2023-03-12T05:08:14.930Z,100704.22
2023-03-12T05:10:45.442Z,100701.47
2023-03-12T05:13:16.720Z,100709.59
2023-03-12T05:15:44.649Z,100712.28
2023-03-12T05:18:13.841Z,100707.00
2023-03-12T05:20:41.934Z,100721.19
2023-03-12T05:23:10.245Z,100719.47
2023-03-12T05:25:40.229Z,100723.09
2023-03-12T05:28:08.188Z,100724.72
2023-03-12T05:30:36.131Z,100721.19
2023-03-12T05:33:03.986Z,100720.25
2023-03-12T05:35:33.167Z,100725.50
2023-03-12T05:38:01.130Z,100719.19
2023-03-12T05:40:29.000Z,100717.47
2023-03-12T05:42:56.721Z,100722.81
2023-03-12T05:45:24.482Z,100717.47
2023-03-12T05:47:52.215Z,100721.09
2023-03-12T05:50:20.118Z,100709.50
2023-03-12T05:52:49.206Z,100713.81
2023-03-12T05:55:17.205Z,100709.41
2023-03-12T05:57:45.274Z,100708.47
2023-03-12T06:00:15.066Z,100707.50
2023-03-12T06:02:43.871Z,100702.88
2023-03-12T06:05:11.964Z,100707.28
2023-03-12T06:07:39.990Z,100706.34
2023-03-12T06:10:11.026Z,100699.16
2023-03-12T06:12:38.877Z,100701.81
2023-03-12T06:15:07.578Z,100697.34
2023-03-12T06:17:35.367Z,100696.28
2023-03-12T06:20:03.138Z,100703.28
2023-03-12T06:22:31.278Z,100683.44
2023-03-12T06:24:59.099Z,100687.97
2023-03-12T06:27:28.398Z,100683.25
2023-03-12T06:29:57.883Z,100678.75
2023-03-12T06:32:26.061Z,100676.84
2023-03-12T06:34:55.749Z,100667.91
2023-03-12T06:37:25.784Z,100661.81
2023-03-12T06:39:53.772Z,100659.78
2023-03-12T06:42:22.636Z,100651.53
2023-03-12T06:44:52.214Z,100649.72
2023-03-12T06:47:19.981Z,100645.19
2023-03-12T06:49:47.703Z,100641.47
2023-03-12T06:52:17.586Z,100648.66
2023-03-12T06:54:45.374Z,100663.59
2023-03-12T06:57:13.109Z,100667.91
2023-03-12T06:59:40.872Z,100653.63
2023-03-12T07:02:11.330Z,100651.06
2023-03-12T07:04:39.236Z,100652.47
2023-03-12T07:07:08.613Z,100653.22
2023-03-12T07:09:37.576Z,100657.63
2023-03-12T07:12:05.523Z,100652.28
2023-03-12T07:14:36.050Z,100659.38
2023-03-12T07:17:04.491Z,100670.94
2023-03-12T07:19:33.665Z,100673.53
2023-03-12T07:22:16.764Z,100659.16
2023-03-12T07:24:44.566Z,100673.34
2023-03-12T07:27:12.399Z,100651.94
2023-03-12T07:29:40.247Z,100675.91
2023-03-12T07:32:08.303Z,100674.00
2023-03-12T07:34:37.407Z,100670.25
2023-03-12T07:37:05.512Z,100661.25
2023-03-12T07:39:33.294Z,100660.25
2023-03-12T07:42:01.271Z,100659.13
2023-03-12T07:44:29.088Z,100661.81
2023-03-12T07:46:56.901Z,100666.97
2023-03-12T07:49:24.707Z,100669.66
2023-03-12T07:51:53.828Z,100685.47
2023-03-12T07:54:25.511Z,100672.81
2023-03-12T07:56:53.712Z,100668.94
2023-03-12T07:59:22.289Z,100675.19
2023-03-12T08:01:50.210Z,100682.06
2023-03-12T08:04:18.075Z,100674.78
2023-03-12T08:06:48.772Z,100667.56
2023-03-12T08:09:17.961Z,100668.13
2023-03-12T08:11:45.709Z,100674.09
2023-03-12T08:14:13.535Z,100685.38
2023-03-12T08:16:41.326Z,100670.88
2023-03-12T08:19:24.667Z,100666.34
2023-03-12T08:21:53.254Z,100679.28
2023-03-12T08:24:23.161Z,100675.53
2023-03-12T08:26:50.942Z,100685.22
2023-03-12T08:29:18.946Z,100691.91
2023-03-12T08:32:03.478Z,100691.47
2023-03-12T08:34:32.167Z,100691.13
2023-03-12T08:37:00.141Z,100706.88
2023-03-12T08:39:29.501Z,100697.50
2023-03-12T08:41:57.236Z,100703.34
2023-03-12T08:44:25.663Z,100699.28
2023-03-12T08:46:53.677Z,100700.66
2023-03-12T08:49:22.732Z,100706.38
2023-03-12T08:51:51.698Z,100713.78
2023-03-12T08:54:19.933Z,100710.69
2023-03-12T08:56:52.452Z,100710.03
2023-03-12T08:59:22.216Z,100698.63
2023-03-12T09:01:50.590Z,100701.75
2023-03-12T09:04:18.421Z,100694.84
2023-03-12T09:06:46.250Z,100691.50
2023-03-12T09:09:14.039Z,100698.91
2023-03-12T09:11:42.530Z,100692.09
2023-03-12T09:16:59.691Z,100688.41
2023-03-12T09:19:27.498Z,100700.34
2023-03-12T09:21:55.491Z,100702.34
2023-03-12T09:24:23.272Z,100702.63
2023-03-12T09:26:51.395Z,100697.56
2023-03-12T09:29:21.627Z,100696.75
2023-03-12T09:31:49.419Z,100703.28
2023-03-12T09:34:17.780Z,100706.00
2023-03-12T09:36:45.663Z,100712.66
2023-03-12T09:39:13.621Z,100716.75
2023-03-12T09:41:43.893Z,100714.69
2023-03-12T09:44:17.772Z,100707.94
2023-03-12T09:46:50.161Z,100715.50
2023-03-12T09:49:24.074Z,100723.09
2023-03-12T09:51:56.562Z,100722.63
2023-03-12T09:54:28.110Z,100714.06
2023-03-12T09:56:59.172Z,100717.88
2023-03-12T09:59:28.998Z,100710.03
2023-03-12T10:02:01.243Z,100721.97
2023-03-12T10:04:52.340Z,100722.09
2023-03-12T10:07:33.027Z,100724.16
2023-03-12T10:10:11.819Z,100719.88
2023-03-12T10:12:52.837Z,100720.00
2023-03-12T10:15:31.553Z,100709.06
2023-03-12T10:18:12.024Z,100715.22
2023-03-12T10:21:09.355Z,100726.84
2023-03-12T10:23:50.199Z,100721.94
2023-03-12T10:26:23.459Z,100712.22
2023-03-12T10:28:54.764Z,100718.22
2023-03-12T10:31:27.620Z,100722.50
2023-03-12T10:33:59.782Z,100719.53
2023-03-12T10:36:35.580Z,100714.13
2023-03-12T10:39:03.361Z,100715.72
2023-03-12T10:41:34.891Z,100719.31
2023-03-12T10:44:07.997Z,100728.00
2023-03-12T10:46:55.199Z,100728.88
2023-03-12T10:49:31.183Z,100721.88
2023-03-12T10:52:01.990Z,100729.75
2023-03-12T10:54:32.837Z,100733.28
2023-03-12T10:57:01.008Z,100730.22
2023-03-12T10:59:32.366Z,100728.81
2023-03-12T11:02:00.937Z,100731.53
2023-03-12T11:04:32.462Z,100735.44
2023-03-12T11:07:15.835Z,100755.94
2023-03-12T11:09:43.559Z,100754.72
2023-03-12T11:12:25.962Z,100754.44
2023-03-12T11:14:53.904Z,100743.63
2023-03-12T11:17:23.613Z,100739.72
2023-03-12T11:19:52.865Z,100751.72
2023-03-12T11:22:32.645Z,100753.19
2023-03-12T11:25:04.102Z,100752.41
2023-03-12T11:27:41.626Z,100758.00
2023-03-12T11:30:15.346Z,100750.25
2023-03-12T11:32:44.502Z,100753.53
2023-03-12T11:35:16.030Z,100746.13
2023-03-12T11:37:57.346Z,100745.03
2023-03-12T11:40:49.265Z,100743.50
2023-03-12T11:43:42.695Z,100742.13
2023-03-12T11:46:27.572Z,100732.22
2023-03-12T11:49:09.546Z,100736.84
2023-03-12T11:51:51.113Z,100715.22
2023-03-12T11:55:03.350Z,100717.69
2023-03-12T11:57:47.932Z,100709.41
2023-03-12T12:00:17.612Z,100709.66
2023-03-12T12:03:28.353Z,100705.81
2023-03-12T12:06:03.178Z,100701.72
2023-03-12T12:08:57.531Z,100709.59
2023-03-12T12:11:35.482Z,100718.31
2023-03-12T12:14:15.913Z,100711.50
2023-03-12T12:17:09.298Z,100704.28
2023-03-12T12:19:51.713Z,100701.00
2023-03-12T12:22:32.852Z,100697.44
2023-03-12T12:25:22.175Z,100710.41
2023-03-12T12:28:00.747Z,100703.44
2023-03-12T12:30:47.604Z,100723.31
2023-03-12T12:33:29.093Z,100729.56
2023-03-12T12:35:56.935Z,100722.84
2023-03-12T12:38:30.916Z,100699.91
2023-03-12T12:41:08.998Z,100700.19
2023-03-12T12:43:40.077Z,100696.50
2023-03-12T12:46:11.601Z,100696.06
2023-03-12T12:48:43.385Z,100690.66
2023-03-12T12:51:13.465Z,100681.78
2023-03-12T12:53:47.854Z,100673.50
2023-03-12T12:56:23.993Z,100674.94
2023-03-12T12:59:11.997Z,100672.94
2023-03-12T13:01:40.733Z,100655.25
2023-03-12T13:04:13.466Z,100662.06
2023-03-12T13:06:59.275Z,100647.22
2023-03-12T13:09:38.790Z,100655.06
2023-03-12T13:12:16.433Z,100660.38
2023-03-12T13:14:45.623Z,100650.94
2023-03-12T13:17:31.233Z,100650.78
2023-03-12T13:20:15.768Z,100656.63
2023-03-12T13:23:00.982Z,100663.19
2023-03-12T13:25:41.488Z,100668.03
2023-03-12T13:28:32.905Z,100661.88
2023-03-12T13:31:01.552Z,100663.59
2023-03-12T13:33:42.168Z,100672.28
2023-03-12T13:36:23.758Z,100682.59
2023-03-12T13:38:58.099Z,100690.56
2023-03-12T13:41:37.789Z,100681.69
2023-03-12T13:44:40.436Z,100676.56
2023-03-12T13:47:23.455Z,100679.28
2023-03-12T13:49:56.085Z,100683.63
2023-03-12T13:52:26.084Z,100687.38
2023-03-12T13:55:01.969Z,100683.03
2023-03-12T13:57:39.544Z,100675.75
2023-03-12T14:00:17.490Z,100677.91
2023-03-12T14:02:50.722Z,100693.22
2023-03-12T14:05:20.978Z,100691.66
2023-03-12T14:08:06.003Z,100707.97
2023-03-12T14:10:44.712Z,100707.41
2023-03-12T14:13:25.272Z,100699.38
2023-03-12T14:16:01.768Z,100702.97
2023-03-12T14:18:33.818Z,100701.25
2023-03-12T14:21:04.559Z,100702.97
2023-03-12T14:23:38.865Z,100710.69
2023-03-12T14:26:08.538Z,100711.38
2023-03-12T14:28:42.251Z,100695.50
2023-03-12T14:31:15.318Z,100713.38
2023-03-12T14:33:58.276Z,100714.06
2023-03-12T14:36:30.431Z,100715.22
2023-03-12T14:39:09.735Z,100705.06
2023-03-12T14:41:44.334Z,100708.19
2023-03-12T14:44:23.572Z,100715.94
2023-03-12T14:47:01.008Z,100707.94
2023-03-12T14:49:29.590Z,100706.38
2023-03-12T14:51:58.070Z,100711.34
2023-03-12T14:54:28.573Z,100702.22
2023-03-12T14:56:56.485Z,100694.22
2023-03-12T14:59:28.922Z,100695.22
2023-03-12T15:02:02.237Z,100686.50
2023-03-12T15:04:31.687Z,100692.50
2023-03-12T15:07:04.405Z,100685.19
2023-03-12T15:09:36.080Z,100693.91
2023-03-12T15:12:09.344Z,100679.91
2023-03-12T15:14:43.174Z,100680.31
2023-03-12T15:17:17.379Z,100690.78
2023-03-12T15:19:46.144Z,100677.13
2023-03-12T15:22:18.450Z,100683.84
2023-03-12T15:24:46.251Z,100682.28
2023-03-12T15:27:23.306Z,100684.16
2023-03-12T15:29:51.125Z,100678.72
2023-03-12T15:32:22.653Z,100687.69
2023-03-12T15:34:50.678Z,100681.88
2023-03-12T15:37:24.737Z,100676.88
2023-03-12T15:39:54.360Z,100663.00
2023-03-12T15:42:25.415Z,100667.41
2023-03-12T15:44:56.791Z,100671.28
2023-03-12T15:47:28.960Z,100667.88
2023-03-12T15:49:59.031Z,100658.69
2023-03-12T15:52:32.856Z,100659.00
2023-03-12T15:55:01.445Z,100661.56
2023-03-12T15:57:30.456Z,100675.16
2023-03-12T16:00:26.114Z,100674.16
2023-03-12T16:02:58.178Z,100675.16
2023-03-12T16:05:29.204Z,100670.03
2023-03-12T16:07:57.316Z,100658.44
2023-03-12T16:10:28.049Z,100662.56
2023-03-12T16:13:03.343Z,100661.72
2023-03-12T16:15:33.810Z,100660.41
2023-03-12T16:18:03.276Z,100660.00
2023-03-12T16:20:31.597Z,100660.00
2023-03-12T16:22:59.400Z,100664.03
2023-03-12T16:25:27.536Z,100659.75
2023-03-12T16:27:59.085Z,100668.75
2023-03-12T16:30:30.275Z,100670.88
2023-03-12T16:32:58.596Z,100669.47
2023-03-12T16:35:28.672Z,100655.06
2023-03-12T16:37:56.956Z,100663.06
2023-03-12T16:40:33.259Z,100639.22
2023-03-12T16:43:03.948Z,100656.78
2023-03-12T16:45:34.529Z,100659.22
2023-03-12T16:48:04.386Z,100666.94
2023-03-12T16:50:33.769Z,100662.66
2023-03-12T16:53:03.980Z,100671.50
2023-03-12T16:55:44.224Z,100666.41
2023-03-12T16:58:14.102Z,100665.53
2023-03-12T17:00:42.508Z,100666.09
2023-03-12T17:03:19.544Z,100668.81
2023-03-12T17:05:48.765Z,100673.38
2023-03-12T17:08:16.764Z,100674.06
2023-03-12T17:10:44.638Z,100667.81
2023-03-12T17:13:19.884Z,100670.09
2023-03-12T17:15:48.294Z,100666.38
2023-03-12T17:18:16.633Z,100670.66
2023-03-12T17:20:44.569Z,100660.66
2023-03-12T17:23:13.971Z,100665.50
2023-03-12T17:25:43.413Z,100647.53
2023-03-12T17:28:12.624Z,100656.66
2023-03-12T17:30:40.417Z,100674.38
2023-03-12T17:33:10.678Z,100675.50
2023-03-12T17:35:39.804Z,100681.91
2023-03-12T17:38:08.187Z,100684.63
2023-03-12T17:40:40.817Z,100680.22
2023-03-12T17:43:08.585Z,100667.78
2023-03-12T17:45:37.004Z,100677.50
2023-03-12T17:48:05.459Z,100679.22
2023-03-12T17:50:33.303Z,100669.94
2023-03-12T17:53:01.430Z,100676.66
2023-03-12T17:55:29.213Z,100684.06
2023-03-12T17:57:58.376Z,100677.06
2023-03-12T18:00:26.417Z,100673.03
2023-03-12T18:02:54.244Z,100669.50
2023-03-12T18:05:22.184Z,100698.03
2023-03-12T18:07:50.527Z,100678.19
2023-03-12T18:10:19.275Z,100680.75
2023-03-12T18:12:47.059Z,100671.47
2023-03-12T18:15:16.831Z,100663.91
2023-03-12T18:17:45.679Z,100671.19
2023-03-12T18:20:25.848Z,100672.88
2023-03-12T18:23:04.012Z,100663.19
2023-03-12T18:25:31.745Z,100662.75
2023-03-12T18:27:59.593Z,100674.03
2023-03-12T18:30:28.792Z,100673.91
2023-03-12T18:32:56.661Z,100669.31
2023-03-12T18:35:28.717Z,100675.16
2023-03-12T18:37:57.860Z,100667.75
2023-03-12T18:40:25.844Z,100653.78
2023-03-12T18:42:53.749Z,100648.34
2023-03-12T18:45:21.515Z,100650.06
2023-03-12T18:47:51.091Z,100646.47
2023-03-12T18:50:19.132Z,100642.06
2023-03-12T18:52:47.322Z,100642.63
2023-03-12T18:55:16.217Z,100640.91
2023-03-12T18:57:44.726Z,100631.63
2023-03-12T19:00:15.056Z,100642.94
2023-03-12T19:02:43.224Z,100627.69
2023-03-12T19:05:12.399Z,100626.22
2023-03-12T19:07:40.933Z,100627.84
2023-03-12T19:10:10.560Z,100625.25
2023-03-12T19:12:51.021Z,100633.25
2023-03-12T19:15:20.727Z,100635.09
2023-03-12T19:17:48.541Z,100640.38
2023-03-12T19:20:18.335Z,100638.38
2023-03-12T19:22:46.318Z,100635.66
2023-03-12T19:25:14.234Z,100639.25
2023-03-12T19:27:42.145Z,100630.25
2023-03-12T19:30:11.211Z,100631.25
2023-03-12T19:32:43.781Z,100631.53
2023-03-12T19:35:14.550Z,100624.41
2023-03-12T19:37:43.985Z,100617.00
2023-03-12T19:40:13.396Z,100622.53
2023-03-12T19:42:41.457Z,100619.25
2023-03-12T19:45:10.455Z,100607.56
2023-03-12T19:47:38.400Z,100610.41
2023-03-12T19:50:07.342Z,100600.72
2023-03-12T19:52:35.282Z,100606.97
2023-03-12T19:55:05.800Z,100590.00
2023-03-12T19:57:37.831Z,100583.72
2023-03-12T20:00:09.713Z,100578.88
2023-03-12T20:02:38.796Z,100574.72
2023-03-12T20:05:08.669Z,100578.31
2023-03-12T20:07:37.033Z,100564.44
2023-03-12T20:10:09.952Z,100571.16
2023-03-12T20:12:38.196Z,100560.75
2023-03-12T20:15:07.106Z,100556.88
2023-03-12T20:17:36.549Z,100553.59
2023-03-12T20:20:05.866Z,100551.78
2023-03-12T20:22:36.359Z,100552.75
2023-03-12T20:25:06.811Z,100552.75
2023-03-12T20:27:35.279Z,100537.66
2023-03-12T20:30:03.751Z,100543.91
2023-03-12T20:32:31.685Z,100549.31
2023-03-12T20:34:59.537Z,100526.94
2023-03-12T20:37:27.399Z,100527.38
2023-03-12T20:39:55.235Z,100520.25
2023-03-12T20:42:24.398Z,100529.50
2023-03-12T20:44:53.338Z,100521.38
2023-03-12T20:47:21.062Z,100520.50
2023-03-12T20:49:48.882Z,100513.25
2023-03-12T20:52:16.718Z,100507.97
2023-03-12T20:54:44.668Z,100507.97
2023-03-12T20:57:12.452Z,100507.97
2023-03-12T20:59:41.633Z,100490.00
2023-03-12T21:02:13.976Z,100500.84
2023-03-12T21:04:42.214Z,100485.59
2023-03-12T21:07:10.017Z,100489.28
2023-03-12T21:09:37.853Z,100487.56
2023-03-12T21:12:06.018Z,100475.88
2023-03-12T21:14:33.890Z,100463.19
2023-03-12T21:17:03.096Z,100459.78
2023-03-12T21:19:31.138Z,100451.78
2023-03-12T21:21:59.164Z,100450.22
2023-03-12T21:24:26.970Z,100447.66
2023-03-12T21:26:55.091Z,100432.69
2023-03-12T21:29:22.879Z,100437.81
2023-03-12T21:31:53.694Z,100440.50
2023-03-12T21:34:23.018Z,100428.13
2023-03-12T21:36:50.802Z,100422.69
2023-03-12T21:39:18.875Z,100407.28
2023-03-12T21:41:46.643Z,100409.31
2023-03-12T21:44:16.505Z,100397.59
2023-03-12T21:46:44.666Z,100404.72
2023-03-12T21:49:13.947Z,100395.03
2023-03-12T21:51:43.104Z,100386.50
2023-03-12T21:54:11.584Z,100390.78
2023-03-12T21:57:02.532Z,100375.25
2023-03-12T21:59:31.426Z,100380.22
2023-03-12T22:01:59.840Z,100386.66
2023-03-12T22:04:28.714Z,100378.53
2023-03-12T22:06:57.925Z,100376.97
2023-03-12T22:09:25.815Z,100371.38
2023-03-12T22:11:53.844Z,100358.69
2023-03-12T22:14:21.628Z,100351.72
2023-03-12T22:16:49.379Z,100351.72
2023-03-12T22:19:17.170Z,100344.56
2023-03-12T22:21:46.815Z,100337.59
2023-03-12T22:24:15.919Z,100332.34
2023-03-12T22:26:43.864Z,100336.03
2023-03-12T22:29:11.762Z,100323.34
2023-03-12T22:31:39.658Z,100328.63
2023-03-12T22:34:07.677Z,100319.78
2023-03-12T22:36:35.486Z,100317.09
2023-03-12T22:39:03.213Z,100318.06
2023-03-12T22:41:32.810Z,100313.53
2023-03-12T22:44:39.889Z,100316.94
2023-03-12T22:47:04.410Z,100296.25
2023-03-12T22:49:32.281Z,100297.28
2023-03-12T22:52:00.118Z,100291.88
2023-03-12T22:54:27.851Z,100291.00
2023-03-12T22:56:56.977Z,100280.88
2023-03-12T22:59:24.779Z,100279.16
2023-03-12T23:01:52.752Z,100263.91
2023-03-12T23:05:03.070Z,100256.78
2023-03-12T23:07:31.000Z,100247.81
2023-03-12T23:09:59.232Z,100234.56
2023-03-12T23:12:28.376Z,100221.03
2023-03-12T23:14:56.181Z,100225.16
2023-03-12T23:17:24.033Z,100224.28
2023-03-12T23:19:52.025Z,100225.16
2023-03-12T23:22:19.935Z,100212.63
2023-03-12T23:24:47.692Z,100204.66
2023-03-12T23:27:15.412Z,100201.78
2023-03-12T23:29:44.666Z,100190.13
2023-03-12T23:32:12.420Z,100173.16
2023-03-12T23:34:40.194Z,100175.72
2023-03-12T23:37:08.165Z,100162.16
2023-03-12T23:39:48.457Z,100154.06
2023-03-12T23:42:22.000Z,100144.94
2023-03-12T23:44:51.167Z,100128.84
2023-03-12T23:47:19.051Z,100133.25
2023-03-12T23:49:46.858Z,100126.81
2023-03-12T23:52:14.625Z,100113.00
2023-03-12T23:54:42.370Z,100103.88
2023-03-12T23:57:10.180Z,100095.44
2023-03-12T23:59:37.914Z,100088.84
